CYUT

Repulse Bay Airport

Repulse Bay, Canada
METAR CYUT 092100Z 00000KT 5SM BR OVC020 M23/M26 A3024 RMK SC8 -22.8/-26.2/TR/TR SNW CVR/TRACE LOOSE SNOW LAST STFD OB/NXT 101300Z SLP247
Observed Flight Rules
Dec-9 @ 21:00 UTC (10 hours ago) Marginal Visual Flight Rules
Visibility Clouds Conditions
5 miles
  • Overcast at 2,000' AGL
  • Mist
Temperatures Readings
Current -23°C / -9°F
Dewpoint -26°C / -15°F
Humidity 77%
Altimeter 30.24" Hg
Pressure 1024.7 hPa
Elevation 24
METAR CYUT 092100Z 00000KT 5SM BR OVC020 M23/M26 A3024 RMK SC8 -22.8/-26.2/TR/TR SNW CVR/TRACE LOOSE SNOW LAST STFD OB/NXT 101300Z SLP247
Observed Flight Rules
Dec-9 @ 21:00 UTC
(10 hours ago)
MVFR
Clouds
  • Overcast at 2,000' AGL
Conditions
  • Mist
Temperature Dewpoint
-23°C / -9°F -26°C / -15°F
Humidity Altimeter Pressure
77% 30.24" Hg 1024.7 hPa